sensor_id;sensor_type;location;lat;lon;timestamp;temperature;humidity
39847;DHT22;25517;52.422;10.782;2023-08-08T00:01:30;12.80;99.90
39847;DHT22;25517;52.422;10.782;2023-08-08T00:03:55;12.80;99.90
39847;DHT22;25517;52.422;10.782;2023-08-08T00:06:21;12.80;99.90
39847;DHT22;25517;52.422;10.782;2023-08-08T00:08:46;12.80;99.90
39847;DHT22;25517;52.422;10.782;2023-08-08T00:11:12;12.80;99.90
39847;DHT22;25517;52.422;10.782;2023-08-08T00:13:37;12.80;99.90
39847;DHT22;25517;52.422;10.782;2023-08-08T00:16:03;12.80;99.90
39847;DHT22;25517;52.422;10.782;2023-08-08T00:18:29;12.70;99.90
39847;DHT22;25517;52.422;10.782;2023-08-08T00:20:54;12.80;99.90
39847;DHT22;25517;52.422;10.782;2023-08-08T00:23:20;12.70;99.90
39847;DHT22;25517;52.422;10.782;2023-08-08T00:25:45;12.70;99.90
39847;DHT22;25517;52.422;10.782;2023-08-08T00:28:15;12.70;99.90
39847;DHT22;25517;52.422;10.782;2023-08-08T00:30:41;12.70;99.90
39847;DHT22;25517;52.422;10.782;2023-08-08T00:33:06;12.60;99.90
39847;DHT22;25517;52.422;10.782;2023-08-08T00:35:32;12.70;99.90
39847;DHT22;25517;52.422;10.782;2023-08-08T00:37:57;12.70;99.90
39847;DHT22;25517;52.422;10.782;2023-08-08T00:40:23;12.70;99.90
39847;DHT22;25517;52.422;10.782;2023-08-08T00:42:48;12.70;99.90
39847;DHT22;25517;52.422;10.782;2023-08-08T00:45:14;12.60;99.90
39847;DHT22;25517;52.422;10.782;2023-08-08T00:47:39;12.60;99.90
39847;DHT22;25517;52.422;10.782;2023-08-08T00:50:05;12.70;99.90
39847;DHT22;25517;52.422;10.782;2023-08-08T00:52:31;12.70;99.90
39847;DHT22;25517;52.422;10.782;2023-08-08T00:54:57;12.60;99.90
39847;DHT22;25517;52.422;10.782;2023-08-08T00:57:23;12.60;99.90
39847;DHT22;25517;52.422;10.782;2023-08-08T00:59:49;12.60;99.90
39847;DHT22;25517;52.422;10.782;2023-08-08T01:02:14;12.60;99.90
39847;DHT22;25517;52.422;10.782;2023-08-08T01:04:40;12.60;99.90
39847;DHT22;25517;52.422;10.782;2023-08-08T01:07:26;12.60;99.90
39847;DHT22;25517;52.422;10.782;2023-08-08T01:10:17;12.60;99.90
39847;DHT22;25517;52.422;10.782;2023-08-08T01:12:46;12.60;99.90
39847;DHT22;25517;52.422;10.782;2023-08-08T01:15:14;12.60;99.90
39847;DHT22;25517;52.422;10.782;2023-08-08T01:17:42;12.60;99.90
39847;DHT22;25517;52.422;10.782;2023-08-08T01:20:09;12.60;99.90
39847;DHT22;25517;52.422;10.782;2023-08-08T01:22:39;12.60;99.90
39847;DHT22;25517;52.422;10.782;2023-08-08T01:25:06;12.60;99.90
39847;DHT22;25517;52.422;10.782;2023-08-08T01:27:32;12.60;99.90
39847;DHT22;25517;52.422;10.782;2023-08-08T01:29:57;12.60;99.90
39847;DHT22;25517;52.422;10.782;2023-08-08T01:32:23;12.60;99.90
39847;DHT22;25517;52.422;10.782;2023-08-08T01:34:48;12.50;99.90
39847;DHT22;25517;52.422;10.782;2023-08-08T01:37:29;12.50;99.90
39847;DHT22;25517;52.422;10.782;2023-08-08T01:39:59;12.50;99.90
39847;DHT22;25517;52.422;10.782;2023-08-08T01:42:26;12.50;99.90
39847;DHT22;25517;52.422;10.782;2023-08-08T01:44:53;12.50;99.90
39847;DHT22;25517;52.422;10.782;2023-08-08T01:47:18;12.50;99.90
39847;DHT22;25517;52.422;10.782;2023-08-08T01:49:44;12.50;99.90
39847;DHT22;25517;52.422;10.782;2023-08-08T01:52:09;12.50;99.90
39847;DHT22;25517;52.422;10.782;2023-08-08T01:54:35;12.50;99.90
39847;DHT22;25517;52.422;10.782;2023-08-08T01:57:01;12.50;99.90
39847;DHT22;25517;52.422;10.782;2023-08-08T01:59:26;12.50;99.90
39847;DHT22;25517;52.422;10.782;2023-08-08T02:01:52;12.50;99.90
39847;DHT22;25517;52.422;10.782;2023-08-08T02:04:17;12.50;99.90
39847;DHT22;25517;52.422;10.782;2023-08-08T02:06:43;12.50;99.90
39847;DHT22;25517;52.422;10.782;2023-08-08T02:09:08;12.50;99.90
39847;DHT22;25517;52.422;10.782;2023-08-08T02:11:34;12.60;99.90
39847;DHT22;25517;52.422;10.782;2023-08-08T02:13:59;12.60;99.90
39847;DHT22;25517;52.422;10.782;2023-08-08T02:16:25;12.60;99.90
39847;DHT22;25517;52.422;10.782;2023-08-08T02:18:50;12.60;99.90
39847;DHT22;25517;52.422;10.782;2023-08-08T02:21:16;12.60;99.90
39847;DHT22;25517;52.422;10.782;2023-08-08T02:23:41;12.60;99.90
39847;DHT22;25517;52.422;10.782;2023-08-08T02:26:07;12.60;99.90
39847;DHT22;25517;52.422;10.782;2023-08-08T02:28:32;12.60;99.90
39847;DHT22;25517;52.422;10.782;2023-08-08T02:30:58;12.50;99.90
39847;DHT22;25517;52.422;10.782;2023-08-08T02:33:23;12.50;99.90
39847;DHT22;25517;52.422;10.782;2023-08-08T02:35:49;12.50;99.90
39847;DHT22;25517;52.422;10.782;2023-08-08T02:38:14;12.50;99.90
39847;DHT22;25517;52.422;10.782;2023-08-08T02:40:40;12.50;99.90
39847;DHT22;25517;52.422;10.782;2023-08-08T02:43:05;12.50;99.90
39847;DHT22;25517;52.422;10.782;2023-08-08T02:45:31;12.50;99.90
39847;DHT22;25517;52.422;10.782;2023-08-08T02:47:56;12.50;99.90
39847;DHT22;25517;52.422;10.782;2023-08-08T02:50:22;12.50;99.90
39847;DHT22;25517;52.422;10.782;2023-08-08T02:52:49;12.50;99.90
39847;DHT22;25517;52.422;10.782;2023-08-08T02:55:15;12.50;99.90
39847;DHT22;25517;52.422;10.782;2023-08-08T02:57:40;12.50;99.90
39847;DHT22;25517;52.422;10.782;2023-08-08T03:00:06;12.50;99.90
39847;DHT22;25517;52.422;10.782;2023-08-08T03:02:33;12.50;99.90
39847;DHT22;25517;52.422;10.782;2023-08-08T03:04:59;12.50;99.90
39847;DHT22;25517;52.422;10.782;2023-08-08T03:07:24;12.50;99.90
39847;DHT22;25517;52.422;10.782;2023-08-08T03:09:50;12.50;99.90
39847;DHT22;25517;52.422;10.782;2023-08-08T03:12:15;12.60;99.90
39847;DHT22;25517;52.422;10.782;2023-08-08T03:14:41;12.60;99.90
39847;DHT22;25517;52.422;10.782;2023-08-08T03:17:06;12.60;99.90
39847;DHT22;25517;52.422;10.782;2023-08-08T03:19:32;12.60;99.90
39847;DHT22;25517;52.422;10.782;2023-08-08T03:21:57;12.70;99.90
39847;DHT22;25517;52.422;10.782;2023-08-08T03:24:23;12.70;99.90
39847;DHT22;25517;52.422;10.782;2023-08-08T03:26:48;12.70;99.90
39847;DHT22;25517;52.422;10.782;2023-08-08T03:29:14;12.70;99.90
39847;DHT22;25517;52.422;10.782;2023-08-08T03:31:39;12.70;99.90
39847;DHT22;25517;52.422;10.782;2023-08-08T03:34:05;12.70;99.90
39847;DHT22;25517;52.422;10.782;2023-08-08T03:36:31;12.70;99.90
39847;DHT22;25517;52.422;10.782;2023-08-08T03:38:57;12.70;99.90
39847;DHT22;25517;52.422;10.782;2023-08-08T03:41:23;12.70;99.90
39847;DHT22;25517;52.422;10.782;2023-08-08T03:43:48;12.80;99.90
39847;DHT22;25517;52.422;10.782;2023-08-08T03:46:14;12.80;99.90
39847;DHT22;25517;52.422;10.782;2023-08-08T03:48:39;12.80;99.90
39847;DHT22;25517;52.422;10.782;2023-08-08T03:51:05;12.80;99.90
39847;DHT22;25517;52.422;10.782;2023-08-08T03:53:32;12.90;99.90
39847;DHT22;25517;52.422;10.782;2023-08-08T03:55:57;12.80;99.90
39847;DHT22;25517;52.422;10.782;2023-08-08T03:58:23;12.90;99.90
39847;DHT22;25517;52.422;10.782;2023-08-08T04:00:48;12.90;99.90
39847;DHT22;25517;52.422;10.782;2023-08-08T04:03:15;12.90;99.90
39847;DHT22;25517;52.422;10.782;2023-08-08T04:05:43;13.00;99.90
39847;DHT22;25517;52.422;10.782;2023-08-08T04:08:11;13.00;99.90
39847;DHT22;25517;52.422;10.782;2023-08-08T04:10:37;13.00;99.90
39847;DHT22;25517;52.422;10.782;2023-08-08T04:13:02;13.10;99.90
39847;DHT22;25517;52.422;10.782;2023-08-08T04:15:28;13.10;99.90
39847;DHT22;25517;52.422;10.782;2023-08-08T04:17:53;13.20;99.90
39847;DHT22;25517;52.422;10.782;2023-08-08T04:20:19;13.20;99.90
39847;DHT22;25517;52.422;10.782;2023-08-08T04:22:45;13.10;99.90
39847;DHT22;25517;52.422;10.782;2023-08-08T04:25:10;13.20;99.90
39847;DHT22;25517;52.422;10.782;2023-08-08T04:27:36;13.30;99.90
39847;DHT22;25517;52.422;10.782;2023-08-08T04:30:02;13.30;99.90
39847;DHT22;25517;52.422;10.782;2023-08-08T04:32:28;13.30;99.90
39847;DHT22;25517;52.422;10.782;2023-08-08T04:34:54;13.30;99.90
39847;DHT22;25517;52.422;10.782;2023-08-08T04:37:19;13.40;99.90
39847;DHT22;25517;52.422;10.782;2023-08-08T04:39:45;13.30;99.90
39847;DHT22;25517;52.422;10.782;2023-08-08T04:42:10;13.40;99.90
39847;DHT22;25517;52.422;10.782;2023-08-08T04:44:36;13.40;99.90
39847;DHT22;25517;52.422;10.782;2023-08-08T04:47:01;13.40;99.90
39847;DHT22;25517;52.422;10.782;2023-08-08T04:49:27;13.50;99.90
39847;DHT22;25517;52.422;10.782;2023-08-08T04:51:54;13.50;99.90
39847;DHT22;25517;52.422;10.782;2023-08-08T04:54:19;13.50;99.90
39847;DHT22;25517;52.422;10.782;2023-08-08T04:56:45;13.60;99.90
39847;DHT22;25517;52.422;10.782;2023-08-08T04:59:10;13.60;99.90
39847;DHT22;25517;52.422;10.782;2023-08-08T05:01:36;13.60;99.90
39847;DHT22;25517;52.422;10.782;2023-08-08T05:04:01;13.60;99.90
39847;DHT22;25517;52.422;10.782;2023-08-08T05:06:27;13.70;99.90
39847;DHT22;25517;52.422;10.782;2023-08-08T05:08:52;13.70;99.90
39847;DHT22;25517;52.422;10.782;2023-08-08T05:11:18;13.70;99.90
39847;DHT22;25517;52.422;10.782;2023-08-08T05:13:45;13.70;99.90
39847;DHT22;25517;52.422;10.782;2023-08-08T05:16:10;13.70;99.90
39847;DHT22;25517;52.422;10.782;2023-08-08T05:18:36;13.80;99.90
39847;DHT22;25517;52.422;10.782;2023-08-08T05:21:02;13.80;99.90
39847;DHT22;25517;52.422;10.782;2023-08-08T05:23:27;13.80;99.90
39847;DHT22;25517;52.422;10.782;2023-08-08T05:25:53;13.90;99.90
39847;DHT22;25517;52.422;10.782;2023-08-08T05:28:18;13.90;99.90
39847;DHT22;25517;52.422;10.782;2023-08-08T05:30:44;14.00;99.90
39847;DHT22;25517;52.422;10.782;2023-08-08T05:33:09;14.00;99.90
39847;DHT22;25517;52.422;10.782;2023-08-08T05:35:35;14.10;99.90
39847;DHT22;25517;52.422;10.782;2023-08-08T05:38:00;14.10;99.90
39847;DHT22;25517;52.422;10.782;2023-08-08T05:40:26;14.10;99.90
39847;DHT22;25517;52.422;10.782;2023-08-08T05:42:51;14.20;99.90
39847;DHT22;25517;52.422;10.782;2023-08-08T05:45:17;14.30;99.90
39847;DHT22;25517;52.422;10.782;2023-08-08T05:47:42;14.30;99.90
39847;DHT22;25517;52.422;10.782;2023-08-08T05:50:08;14.40;99.90
39847;DHT22;25517;52.422;10.782;2023-08-08T05:52:34;14.40;99.90
39847;DHT22;25517;52.422;10.782;2023-08-08T05:54:59;14.50;99.90
39847;DHT22;25517;52.422;10.782;2023-08-08T05:57:25;14.60;99.90
39847;DHT22;25517;52.422;10.782;2023-08-08T05:59:51;14.60;99.90
39847;DHT22;25517;52.422;10.782;2023-08-08T06:02:17;14.60;99.90
39847;DHT22;25517;52.422;10.782;2023-08-08T06:04:43;14.60;99.90
39847;DHT22;25517;52.422;10.782;2023-08-08T06:07:08;14.60;99.90
39847;DHT22;25517;52.422;10.782;2023-08-08T06:09:35;14.60;99.90
39847;DHT22;25517;52.422;10.782;2023-08-08T06:12:02;14.70;99.90
39847;DHT22;25517;52.422;10.782;2023-08-08T06:14:27;14.70;99.90
39847;DHT22;25517;52.422;10.782;2023-08-08T06:16:53;14.70;99.90
39847;DHT22;25517;52.422;10.782;2023-08-08T06:19:19;14.70;99.90
39847;DHT22;25517;52.422;10.782;2023-08-08T06:21:46;14.80;99.90
39847;DHT22;25517;52.422;10.782;2023-08-08T06:24:11;14.80;99.90
39847;DHT22;25517;52.422;10.782;2023-08-08T06:26:37;14.90;99.90
39847;DHT22;25517;52.422;10.782;2023-08-08T06:29:02;15.00;99.90
39847;DHT22;25517;52.422;10.782;2023-08-08T06:31:29;15.10;99.90
39847;DHT22;25517;52.422;10.782;2023-08-08T06:33:54;15.20;99.90
39847;DHT22;25517;52.422;10.782;2023-08-08T06:36:20;15.30;99.90
39847;DHT22;25517;52.422;10.782;2023-08-08T06:38:45;15.30;99.90
39847;DHT22;25517;52.422;10.782;2023-08-08T06:41:11;15.30;99.90
39847;DHT22;25517;52.422;10.782;2023-08-08T06:43:36;15.40;99.90
39847;DHT22;25517;52.422;10.782;2023-08-08T06:46:02;15.60;99.90
39847;DHT22;25517;52.422;10.782;2023-08-08T06:48:27;15.70;99.90
39847;DHT22;25517;52.422;10.782;2023-08-08T06:50:53;15.80;99.90
39847;DHT22;25517;52.422;10.782;2023-08-08T06:53:18;16.00;99.90
39847;DHT22;25517;52.422;10.782;2023-08-08T06:55:44;16.00;99.90
39847;DHT22;25517;52.422;10.782;2023-08-08T06:58:09;16.10;99.90
39847;DHT22;25517;52.422;10.782;2023-08-08T07:00:35;16.20;99.90
39847;DHT22;25517;52.422;10.782;2023-08-08T07:03:00;16.30;99.90
39847;DHT22;25517;52.422;10.782;2023-08-08T07:05:26;16.30;99.90
39847;DHT22;25517;52.422;10.782;2023-08-08T07:07:52;16.40;99.90
39847;DHT22;25517;52.422;10.782;2023-08-08T07:10:18;16.30;99.90
39847;DHT22;25517;52.422;10.782;2023-08-08T07:12:44;16.40;99.90
39847;DHT22;25517;52.422;10.782;2023-08-08T07:15:10;16.30;99.90
39847;DHT22;25517;52.422;10.782;2023-08-08T07:17:36;16.30;99.90
39847;DHT22;25517;52.422;10.782;2023-08-08T07:20:01;16.40;99.90
39847;DHT22;25517;52.422;10.782;2023-08-08T07:22:27;16.50;99.90
39847;DHT22;25517;52.422;10.782;2023-08-08T07:24:53;16.70;99.90
39847;DHT22;25517;52.422;10.782;2023-08-08T07:27:19;16.70;99.90
39847;DHT22;25517;52.422;10.782;2023-08-08T07:29:44;16.70;99.90
39847;DHT22;25517;52.422;10.782;2023-08-08T07:32:10;16.70;99.90
39847;DHT22;25517;52.422;10.782;2023-08-08T07:34:35;16.80;99.90
39847;DHT22;25517;52.422;10.782;2023-08-08T07:37:02;16.80;99.90
39847;DHT22;25517;52.422;10.782;2023-08-08T07:39:28;16.90;99.90
39847;DHT22;25517;52.422;10.782;2023-08-08T07:41:54;16.90;99.90
39847;DHT22;25517;52.422;10.782;2023-08-08T07:44:19;17.00;99.90
39847;DHT22;25517;52.422;10.782;2023-08-08T07:46:45;17.00;99.90
39847;DHT22;25517;52.422;10.782;2023-08-08T07:49:11;17.00;99.90
39847;DHT22;25517;52.422;10.782;2023-08-08T07:51:36;17.20;99.90
39847;DHT22;25517;52.422;10.782;2023-08-08T07:54:02;17.00;99.90
39847;DHT22;25517;52.422;10.782;2023-08-08T07:56:27;17.00;99.90
39847;DHT22;25517;52.422;10.782;2023-08-08T07:58:53;17.10;99.90
39847;DHT22;25517;52.422;10.782;2023-08-08T08:01:19;17.10;99.90
39847;DHT22;25517;52.422;10.782;2023-08-08T08:03:45;17.20;99.90
39847;DHT22;25517;52.422;10.782;2023-08-08T08:06:12;17.40;99.90
39847;DHT22;25517;52.422;10.782;2023-08-08T08:08:37;17.50;99.90
39847;DHT22;25517;52.422;10.782;2023-08-08T08:11:03;17.80;99.90
39847;DHT22;25517;52.422;10.782;2023-08-08T08:13:29;18.00;99.90
39847;DHT22;25517;52.422;10.782;2023-08-08T08:15:54;18.30;99.90
39847;DHT22;25517;52.422;10.782;2023-08-08T08:18:20;18.30;99.90
39847;DHT22;25517;52.422;10.782;2023-08-08T08:20:46;18.20;99.90
39847;DHT22;25517;52.422;10.782;2023-08-08T08:23:12;18.00;99.90
39847;DHT22;25517;52.422;10.782;2023-08-08T08:25:37;18.00;99.90
39847;DHT22;25517;52.422;10.782;2023-08-08T08:28:03;18.20;99.90
39847;DHT22;25517;52.422;10.782;2023-08-08T08:30:28;18.60;99.90
39847;DHT22;25517;52.422;10.782;2023-08-08T08:32:54;19.00;99.90
39847;DHT22;25517;52.422;10.782;2023-08-08T08:35:20;18.80;99.90
39847;DHT22;25517;52.422;10.782;2023-08-08T08:37:46;18.50;99.90
39847;DHT22;25517;52.422;10.782;2023-08-08T08:40:11;18.50;99.90
39847;DHT22;25517;52.422;10.782;2023-08-08T08:42:39;19.60;99.90
39847;DHT22;25517;52.422;10.782;2023-08-08T08:45:06;21.00;99.90
39847;DHT22;25517;52.422;10.782;2023-08-08T08:47:36;22.00;97.40
39847;DHT22;25517;52.422;10.782;2023-08-08T08:50:02;21.80;96.10
39847;DHT22;25517;52.422;10.782;2023-08-08T08:52:29;21.50;95.70
39847;DHT22;25517;52.422;10.782;2023-08-08T08:54:55;20.70;96.40
39847;DHT22;25517;52.422;10.782;2023-08-08T08:57:23;20.20;97.60
39847;DHT22;25517;52.422;10.782;2023-08-08T08:59:50;19.90;98.20
39847;DHT22;25517;52.422;10.782;2023-08-08T09:02:16;19.70;97.70
39847;DHT22;25517;52.422;10.782;2023-08-08T09:04:43;19.40;97.40
39847;DHT22;25517;52.422;10.782;2023-08-08T09:07:11;18.90;97.40
39847;DHT22;25517;52.422;10.782;2023-08-08T09:09:37;18.70;97.90
39847;DHT22;25517;52.422;10.782;2023-08-08T09:12:04;18.60;98.80
39847;DHT22;25517;52.422;10.782;2023-08-08T09:14:32;18.60;99.40
39847;DHT22;25517;52.422;10.782;2023-08-08T09:16:58;18.40;99.20
39847;DHT22;25517;52.422;10.782;2023-08-08T09:19:24;18.30;99.90
39847;DHT22;25517;52.422;10.782;2023-08-08T09:21:51;18.10;99.90
39847;DHT22;25517;52.422;10.782;2023-08-08T09:24:18;18.00;99.90
39847;DHT22;25517;52.422;10.782;2023-08-08T09:26:44;18.10;99.90
39847;DHT22;25517;52.422;10.782;2023-08-08T09:29:11;18.40;99.90
39847;DHT22;25517;52.422;10.782;2023-08-08T09:31:37;20.00;98.50
39847;DHT22;25517;52.422;10.782;2023-08-08T09:34:03;21.70;96.10
39847;DHT22;25517;52.422;10.782;2023-08-08T09:36:30;22.20;93.40
39847;DHT22;25517;52.422;10.782;2023-08-08T09:38:56;22.20;92.60
39847;DHT22;25517;52.422;10.782;2023-08-08T09:41:23;22.40;92.00
39847;DHT22;25517;52.422;10.782;2023-08-08T09:43:50;22.20;90.90
39847;DHT22;25517;52.422;10.782;2023-08-08T09:46:15;21.70;92.00
39847;DHT22;25517;52.422;10.782;2023-08-08T09:48:42;21.50;92.30
39847;DHT22;25517;52.422;10.782;2023-08-08T09:51:08;21.30;92.40
39847;DHT22;25517;52.422;10.782;2023-08-08T09:53:35;21.80;91.50
39847;DHT22;25517;52.422;10.782;2023-08-08T09:56:05;22.80;90.00
39847;DHT22;25517;52.422;10.782;2023-08-08T09:58:31;22.40;89.50
39847;DHT22;25517;52.422;10.782;2023-08-08T10:00:57;21.80;90.10
39847;DHT22;25517;52.422;10.782;2023-08-08T10:03:24;21.40;90.90
39847;DHT22;25517;52.422;10.782;2023-08-08T10:05:49;21.20;92.10
39847;DHT22;25517;52.422;10.782;2023-08-08T10:08:15;20.80;91.80
39847;DHT22;25517;52.422;10.782;2023-08-08T10:10:44;20.30;92.70
39847;DHT22;25517;52.422;10.782;2023-08-08T10:13:10;19.70;94.80
39847;DHT22;25517;52.422;10.782;2023-08-08T10:15:39;19.10;94.90
39847;DHT22;25517;52.422;10.782;2023-08-08T10:18:05;18.40;97.70
39847;DHT22;25517;52.422;10.782;2023-08-08T10:20:32;18.20;99.10
39847;DHT22;25517;52.422;10.782;2023-08-08T10:22:59;18.10;99.50
39847;DHT22;25517;52.422;10.782;2023-08-08T10:25:27;18.00;99.90
39847;DHT22;25517;52.422;10.782;2023-08-08T10:28:04;18.10;99.90
39847;DHT22;25517;52.422;10.782;2023-08-08T10:30:30;18.20;99.90
39847;DHT22;25517;52.422;10.782;2023-08-08T10:33:18;18.30;99.90
39847;DHT22;25517;52.422;10.782;2023-08-08T10:36:00;18.50;99.90
39847;DHT22;25517;52.422;10.782;2023-08-08T10:38:38;18.80;99.90
39847;DHT22;25517;52.422;10.782;2023-08-08T10:41:05;19.60;99.10
39847;DHT22;25517;52.422;10.782;2023-08-08T10:43:30;20.60;98.20
39847;DHT22;25517;52.422;10.782;2023-08-08T10:46:03;20.50;97.20
39847;DHT22;25517;52.422;10.782;2023-08-08T10:48:30;20.10;97.60
39847;DHT22;25517;52.422;10.782;2023-08-08T10:50:58;19.70;98.00
39847;DHT22;25517;52.422;10.782;2023-08-08T10:53:29;19.40;98.70
39847;DHT22;25517;52.422;10.782;2023-08-08T10:56:00;19.20;99.20
39847;DHT22;25517;52.422;10.782;2023-08-08T10:58:40;18.70;99.80
39847;DHT22;25517;52.422;10.782;2023-08-08T11:01:06;18.50;99.90
39847;DHT22;25517;52.422;10.782;2023-08-08T11:03:40;18.10;99.90
39847;DHT22;25517;52.422;10.782;2023-08-08T11:06:07;17.70;99.90
39847;DHT22;25517;52.422;10.782;2023-08-08T11:08:33;17.40;99.90
39847;DHT22;25517;52.422;10.782;2023-08-08T11:11:00;17.30;99.90
39847;DHT22;25517;52.422;10.782;2023-08-08T11:13:26;17.20;99.90
39847;DHT22;25517;52.422;10.782;2023-08-08T11:15:51;17.20;99.90
39847;DHT22;25517;52.422;10.782;2023-08-08T11:18:17;17.20;99.90
39847;DHT22;25517;52.422;10.782;2023-08-08T11:20:43;17.00;99.90
39847;DHT22;25517;52.422;10.782;2023-08-08T11:23:09;17.10;99.90
39847;DHT22;25517;52.422;10.782;2023-08-08T11:25:37;16.90;99.90
39847;DHT22;25517;52.422;10.782;2023-08-08T11:28:04;16.90;99.90
39847;DHT22;25517;52.422;10.782;2023-08-08T11:30:33;16.70;99.90
39847;DHT22;25517;52.422;10.782;2023-08-08T11:33:00;16.80;99.90
39847;DHT22;25517;52.422;10.782;2023-08-08T11:35:26;16.90;99.90
39847;DHT22;25517;52.422;10.782;2023-08-08T11:37:53;17.50;99.90
39847;DHT22;25517;52.422;10.782;2023-08-08T11:40:20;19.30;99.90
39847;DHT22;25517;52.422;10.782;2023-08-08T11:42:45;21.10;99.90
39847;DHT22;25517;52.422;10.782;2023-08-08T11:45:12;22.70;99.10
39847;DHT22;25517;52.422;10.782;2023-08-08T11:47:39;23.90;96.30
39847;DHT22;25517;52.422;10.782;2023-08-08T11:50:06;24.70;94.20
39847;DHT22;25517;52.422;10.782;2023-08-08T11:52:33;25.20;93.10
39847;DHT22;25517;52.422;10.782;2023-08-08T11:54:59;25.50;92.40
39847;DHT22;25517;52.422;10.782;2023-08-08T11:57:27;26.00;90.10
39847;DHT22;25517;52.422;10.782;2023-08-08T11:59:54;25.50;91.00
39847;DHT22;25517;52.422;10.782;2023-08-08T12:02:19;26.10;91.10
39847;DHT22;25517;52.422;10.782;2023-08-08T12:04:45;26.30;89.80
39847;DHT22;25517;52.422;10.782;2023-08-08T12:07:11;26.70;91.00
39847;DHT22;25517;52.422;10.782;2023-08-08T12:09:37;26.30;88.00
39847;DHT22;25517;52.422;10.782;2023-08-08T12:12:04;26.00;90.80
39847;DHT22;25517;52.422;10.782;2023-08-08T12:14:30;26.10;87.60
39847;DHT22;25517;52.422;10.782;2023-08-08T12:17:00;25.90;89.40
39847;DHT22;25517;52.422;10.782;2023-08-08T12:19:27;25.90;88.00
39847;DHT22;25517;52.422;10.782;2023-08-08T12:21:54;26.00;86.50
39847;DHT22;25517;52.422;10.782;2023-08-08T12:24:19;25.80;84.80
39847;DHT22;25517;52.422;10.782;2023-08-08T12:26:45;25.60;83.90
39847;DHT22;25517;52.422;10.782;2023-08-08T12:29:11;25.60;84.20
39847;DHT22;25517;52.422;10.782;2023-08-08T12:31:37;25.30;86.00
39847;DHT22;25517;52.422;10.782;2023-08-08T12:34:03;24.90;87.00
39847;DHT22;25517;52.422;10.782;2023-08-08T12:36:29;24.70;86.50
39847;DHT22;25517;52.422;10.782;2023-08-08T12:38:54;24.50;88.00
39847;DHT22;25517;52.422;10.782;2023-08-08T12:41:20;24.60;87.50
39847;DHT22;25517;52.422;10.782;2023-08-08T12:43:45;24.00;84.00
39847;DHT22;25517;52.422;10.782;2023-08-08T12:46:11;23.20;88.00
39847;DHT22;25517;52.422;10.782;2023-08-08T12:48:36;22.50;88.40
39847;DHT22;25517;52.422;10.782;2023-08-08T12:51:02;22.00;90.10
39847;DHT22;25517;52.422;10.782;2023-08-08T12:53:28;21.40;91.90
39847;DHT22;25517;52.422;10.782;2023-08-08T12:55:54;20.90;92.90
39847;DHT22;25517;52.422;10.782;2023-08-08T12:58:20;20.70;93.00
39847;DHT22;25517;52.422;10.782;2023-08-08T13:00:45;20.50;92.50
39847;DHT22;25517;52.422;10.782;2023-08-08T13:03:11;20.60;92.30
39847;DHT22;25517;52.422;10.782;2023-08-08T13:05:38;21.00;92.10
39847;DHT22;25517;52.422;10.782;2023-08-08T13:08:04;21.30;90.30
39847;DHT22;25517;52.422;10.782;2023-08-08T13:10:30;21.70;90.20
39847;DHT22;25517;52.422;10.782;2023-08-08T13:12:56;22.00;89.40
39847;DHT22;25517;52.422;10.782;2023-08-08T13:15:21;22.20;89.10
39847;DHT22;25517;52.422;10.782;2023-08-08T13:17:47;22.00;90.00
39847;DHT22;25517;52.422;10.782;2023-08-08T13:20:13;21.70;90.60
39847;DHT22;25517;52.422;10.782;2023-08-08T13:22:38;21.50;90.80
39847;DHT22;25517;52.422;10.782;2023-08-08T13:25:05;21.50;90.10
39847;DHT22;25517;52.422;10.782;2023-08-08T13:27:31;21.90;90.90
39847;DHT22;25517;52.422;10.782;2023-08-08T13:29:57;22.10;90.20
39847;DHT22;25517;52.422;10.782;2023-08-08T13:32:23;21.90;90.30
39847;DHT22;25517;52.422;10.782;2023-08-08T13:34:48;21.80;90.60
39847;DHT22;25517;52.422;10.782;2023-08-08T13:37:15;21.70;90.50
39847;DHT22;25517;52.422;10.782;2023-08-08T13:39:41;21.40;90.20
39847;DHT22;25517;52.422;10.782;2023-08-08T13:42:08;21.30;90.20
39847;DHT22;25517;52.422;10.782;2023-08-08T13:44:34;20.80;90.60
39847;DHT22;25517;52.422;10.782;2023-08-08T13:46:59;20.60;90.90
39847;DHT22;25517;52.422;10.782;2023-08-08T13:49:25;20.50;90.80
39847;DHT22;25517;52.422;10.782;2023-08-08T13:51:52;20.50;91.30
39847;DHT22;25517;52.422;10.782;2023-08-08T13:54:19;20.40;91.20
39847;DHT22;25517;52.422;10.782;2023-08-08T13:56:44;20.40;91.30
39847;DHT22;25517;52.422;10.782;2023-08-08T13:59:10;20.30;90.80
39847;DHT22;25517;52.422;10.782;2023-08-08T14:01:35;20.10;91.30
39847;DHT22;25517;52.422;10.782;2023-08-08T14:04:01;19.40;96.20
39847;DHT22;25517;52.422;10.782;2023-08-08T14:06:27;18.80;97.30
39847;DHT22;25517;52.422;10.782;2023-08-08T14:08:52;18.30;98.20
39847;DHT22;25517;52.422;10.782;2023-08-08T14:11:18;18.00;99.90
39847;DHT22;25517;52.422;10.782;2023-08-08T14:13:43;17.50;99.90
39847;DHT22;25517;52.422;10.782;2023-08-08T14:16:09;17.30;99.90
39847;DHT22;25517;52.422;10.782;2023-08-08T14:18:35;17.10;99.90
39847;DHT22;25517;52.422;10.782;2023-08-08T14:21:00;17.00;99.90
39847;DHT22;25517;52.422;10.782;2023-08-08T14:23:28;16.90;99.90
39847;DHT22;25517;52.422;10.782;2023-08-08T14:25:53;16.80;99.90
39847;DHT22;25517;52.422;10.782;2023-08-08T14:28:19;16.90;99.90
39847;DHT22;25517;52.422;10.782;2023-08-08T14:30:44;16.90;99.90
39847;DHT22;25517;52.422;10.782;2023-08-08T14:33:12;17.00;99.90
39847;DHT22;25517;52.422;10.782;2023-08-08T14:35:38;17.30;99.90
39847;DHT22;25517;52.422;10.782;2023-08-08T14:38:03;17.60;99.90
39847;DHT22;25517;52.422;10.782;2023-08-08T14:40:29;18.00;99.90
39847;DHT22;25517;52.422;10.782;2023-08-08T14:42:54;18.30;99.90
39847;DHT22;25517;52.422;10.782;2023-08-08T14:45:20;18.70;99.90
39847;DHT22;25517;52.422;10.782;2023-08-08T14:47:46;18.90;99.90
39847;DHT22;25517;52.422;10.782;2023-08-08T14:50:12;18.80;99.90
39847;DHT22;25517;52.422;10.782;2023-08-08T14:52:37;18.70;99.90
39847;DHT22;25517;52.422;10.782;2023-08-08T14:55:03;18.50;99.90
39847;DHT22;25517;52.422;10.782;2023-08-08T14:57:29;18.30;99.90
39847;DHT22;25517;52.422;10.782;2023-08-08T14:59:55;18.30;99.90
39847;DHT22;25517;52.422;10.782;2023-08-08T15:02:20;18.00;99.90
39847;DHT22;25517;52.422;10.782;2023-08-08T15:04:46;17.70;99.90
39847;DHT22;25517;52.422;10.782;2023-08-08T15:07:11;17.40;99.90
39847;DHT22;25517;52.422;10.782;2023-08-08T15:09:37;16.90;99.90